sensor_id;sensor_type;location;lat;lon;timestamp;temperature;humidity
69731;SHT31;56996;48.138;11.538;2024-01-30T05:21:23;3.10;63.54
69731;SHT31;56996;48.138;11.538;2024-01-30T05:23:50;3.09;63.51
69731;SHT31;56996;48.138;11.538;2024-01-30T05:26:17;3.09;63.40
69731;SHT31;56996;48.138;11.538;2024-01-30T05:28:44;3.08;63.49
69731;SHT31;56996;48.138;11.538;2024-01-30T05:31:11;3.08;63.56
69731;SHT31;56996;48.138;11.538;2024-01-30T05:33:38;3.06;63.47
69731;SHT31;56996;48.138;11.538;2024-01-30T05:36:05;3.04;63.57
69731;SHT31;56996;48.138;11.538;2024-01-30T05:38:31;3.01;63.60
69731;SHT31;56996;48.138;11.538;2024-01-30T05:40:58;3.00;63.58
69731;SHT31;56996;48.138;11.538;2024-01-30T05:43:25;2.99;63.68
69731;SHT31;56996;48.138;11.538;2024-01-30T05:45:52;2.99;63.72
69731;SHT31;56996;48.138;11.538;2024-01-30T05:48:19;2.96;63.81
69731;SHT31;56996;48.138;11.538;2024-01-30T05:50:46;2.94;63.85
69731;SHT31;56996;48.138;11.538;2024-01-30T05:53:13;2.94;63.91
69731;SHT31;56996;48.138;11.538;2024-01-30T05:55:58;2.93;63.85
69731;SHT31;56996;48.138;11.538;2024-01-30T05:58:26;2.94;63.80
69731;SHT31;56996;48.138;11.538;2024-01-30T06:00:53;2.93;63.80
69731;SHT31;56996;48.138;11.538;2024-01-30T06:03:20;2.91;63.80
69731;SHT31;56996;48.138;11.538;2024-01-30T06:05:47;2.90;63.84
69731;SHT31;56996;48.138;11.538;2024-01-30T06:08:14;2.88;63.93
69731;SHT31;56996;48.138;11.538;2024-01-30T06:10:41;2.86;64.03
69731;SHT31;56996;48.138;11.538;2024-01-30T06:13:07;2.88;64.09
69731;SHT31;56996;48.138;11.538;2024-01-30T06:15:34;2.87;64.10
69731;SHT31;56996;48.138;11.538;2024-01-30T06:18:01;2.88;64.02
69731;SHT31;56996;48.138;11.538;2024-01-30T06:20:28;2.88;64.00
69731;SHT31;56996;48.138;11.538;2024-01-30T06:22:55;2.89;64.02
69731;SHT31;56996;48.138;11.538;2024-01-30T06:25:21;2.89;63.73
69731;SHT31;56996;48.138;11.538;2024-01-30T06:27:48;2.90;63.54
69731;SHT31;56996;48.138;11.538;2024-01-30T06:30:15;2.91;63.52
69731;SHT31;56996;48.138;11.538;2024-01-30T06:32:42;2.91;63.58
69731;SHT31;56996;48.138;11.538;2024-01-30T06:35:08;2.92;63.66
69731;SHT31;56996;48.138;11.538;2024-01-30T06:37:37;2.93;63.78
69731;SHT31;56996;48.138;11.538;2024-01-30T06:40:04;2.93;63.87
69731;SHT31;56996;48.138;11.538;2024-01-30T06:42:32;2.93;63.97
69731;SHT31;56996;48.138;11.538;2024-01-30T06:44:58;2.95;64.01
69731;SHT31;56996;48.138;11.538;2024-01-30T06:47:25;2.96;64.12
69731;SHT31;56996;48.138;11.538;2024-01-30T06:49:52;2.99;64.26
69731;SHT31;56996;48.138;11.538;2024-01-30T06:52:19;3.01;64.60
69731;SHT31;56996;48.138;11.538;2024-01-30T06:54:46;3.05;64.49
69731;SHT31;56996;48.138;11.538;2024-01-30T06:57:12;3.08;64.33
69731;SHT31;56996;48.138;11.538;2024-01-30T06:59:40;3.08;64.30
69731;SHT31;56996;48.138;11.538;2024-01-30T07:02:10;3.11;64.22
69731;SHT31;56996;48.138;11.538;2024-01-30T07:04:37;3.14;64.08
69731;SHT31;56996;48.138;11.538;2024-01-30T07:07:11;3.17;63.95
